createdAt,value
2018-07-30T00:07:03.001Z,3.07
2018-07-30T00:17:06.068Z,2.90
2018-07-30T00:27:09.187Z,2.83
2018-07-30T00:37:12.366Z,2.80
2018-07-30T00:47:15.521Z,2.70
2018-07-30T00:57:18.778Z,2.90
2018-07-30T01:07:21.814Z,2.70
2018-07-30T01:17:24.911Z,2.62
2018-07-30T01:27:28.034Z,3.03
2018-07-30T01:37:32.007Z,2.73
2018-07-30T01:47:35.157Z,2.90
2018-07-30T01:57:38.305Z,3.10
2018-07-30T02:07:42.333Z,2.73
2018-07-30T02:17:45.629Z,2.90
2018-07-30T02:27:49.023Z,2.90
2018-07-30T02:37:52.912Z,3.27
2018-07-30T02:47:56.789Z,2.70
2018-07-30T02:57:59.777Z,2.80
2018-07-30T03:08:02.961Z,2.83
2018-07-30T03:18:07.017Z,2.95
2018-07-30T03:28:10.009Z,2.90
2018-07-30T04:08:21.361Z,3.60
2018-07-30T05:08:38.011Z,4.20
2018-07-30T05:18:41.241Z,4.03
2018-07-30T06:08:55.593Z,5.00
2018-07-30T06:18:58.831Z,5.40
2018-07-30T06:29:01.839Z,5.00
2018-07-30T06:39:07.947Z,4.93
2018-07-30T06:49:12.824Z,5.10
2018-07-30T06:59:19.695Z,5.40
2018-07-30T07:09:22.881Z,5.20
2018-07-30T07:19:27.134Z,5.47
2018-07-30T07:29:30.730Z,5.57
2018-07-30T07:39:33.944Z,5.63
2018-07-30T07:49:37.190Z,5.75
2018-07-30T07:59:41.222Z,5.80
2018-07-30T08:09:44.404Z,5.93
2018-07-30T08:19:47.401Z,5.50
2018-07-30T08:29:50.468Z,5.30
2018-07-30T08:39:53.476Z,5.42
2018-07-30T08:49:56.510Z,6.20
2018-07-30T08:59:59.733Z,6.50
2018-07-30T09:10:02.732Z,5.13
2018-07-30T09:20:05.966Z,5.27
2018-07-30T09:30:08.989Z,5.37
2018-07-30T09:40:12.151Z,5.10
2018-07-30T09:50:15.277Z,6.03
2018-07-30T10:00:22.660Z,5.50
2018-07-30T10:10:25.788Z,5.50
2018-07-30T10:20:28.777Z,4.83
2018-07-30T13:10:09.653Z,5.08
2018-07-30T13:20:12.808Z,5.40
2018-07-30T13:30:15.914Z,6.57
2018-07-30T13:40:18.872Z,4.40
2018-07-30T13:50:21.989Z,5.42
2018-07-30T14:00:24.953Z,4.87
2018-07-30T14:10:28.069Z,5.28
2018-07-30T14:20:31.021Z,6.33
2018-07-30T14:30:34.134Z,5.60
2018-07-30T14:40:37.094Z,5.75
2018-07-30T14:50:40.374Z,5.78
2018-07-30T15:00:43.432Z,5.22
2018-07-30T15:10:46.504Z,5.00
2018-07-30T15:20:49.444Z,5.03
2018-07-30T15:30:52.388Z,4.60
2018-07-30T15:40:55.518Z,4.58
2018-07-30T15:50:58.488Z,5.00
2018-07-30T16:01:01.629Z,5.37
2018-07-30T16:21:07.089Z,4.65
2018-07-30T16:31:10.203Z,4.70
2018-07-30T16:41:13.152Z,4.40
2018-07-30T16:51:16.301Z,4.70
2018-07-30T17:01:19.458Z,4.70
2018-07-30T17:11:22.576Z,4.50
2018-07-30T17:21:25.723Z,4.50
2018-07-30T17:31:28.850Z,4.50
2018-07-30T17:41:31.995Z,4.30
2018-07-30T17:51:35.111Z,4.20
